createdAt,value
2018-10-01T00:00:16.011Z,21.94
2018-10-01T00:02:44.331Z,21.93
2018-10-01T00:05:12.610Z,21.93
2018-10-01T00:07:40.902Z,21.91
2018-10-01T00:10:09.284Z,21.91
2018-10-01T00:12:37.631Z,21.93
2018-10-01T00:15:06.850Z,21.91
2018-10-01T00:17:35.183Z,21.90
2018-10-01T00:20:08.807Z,21.90
2018-10-01T00:22:42.566Z,21.89
2018-10-01T00:25:10.934Z,21.88
2018-10-01T00:27:39.242Z,21.87
2018-10-01T00:30:07.550Z,21.85
2018-10-01T00:32:36.085Z,21.86
2018-10-01T00:35:04.399Z,21.85
2018-10-01T00:37:32.731Z,21.84
2018-10-01T00:40:01.042Z,21.85
2018-10-01T00:42:29.462Z,21.83
2018-10-01T00:44:57.746Z,21.82
2018-10-01T00:47:26.095Z,21.82
2018-10-01T00:49:54.365Z,21.82
2018-10-01T00:52:22.667Z,21.81
2018-10-01T00:54:50.951Z,21.82
2018-10-01T00:57:19.346Z,21.80
2018-10-01T00:59:47.698Z,21.81
2018-10-01T01:02:16.136Z,21.80
2018-10-01T01:04:44.427Z,21.78
2018-10-01T01:07:12.755Z,21.80
2018-10-01T01:09:41.084Z,21.78
2018-10-01T01:12:09.814Z,21.79
2018-10-01T01:14:38.599Z,21.79
2018-10-01T01:17:07.178Z,21.78
2018-10-01T01:19:35.486Z,21.78
2018-10-01T01:22:03.863Z,21.77
2018-10-01T01:24:32.186Z,21.77
2018-10-01T01:27:00.506Z,21.78
2018-10-01T01:29:28.895Z,21.76
2018-10-01T01:31:57.378Z,21.77
2018-10-01T01:34:25.822Z,21.74
2018-10-01T01:36:54.215Z,21.76
2018-10-01T01:39:22.518Z,21.76
2018-10-01T01:41:50.827Z,21.75
2018-10-01T01:44:19.162Z,21.75
2018-10-01T01:46:47.486Z,21.74
2018-10-01T01:49:15.795Z,21.74
2018-10-01T01:51:44.262Z,21.74
2018-10-01T01:54:12.574Z,21.72
2018-10-01T01:56:40.846Z,21.72
2018-10-01T01:59:09.147Z,21.72
2018-10-01T02:01:37.494Z,21.71
2018-10-01T02:04:05.879Z,21.71
2018-10-01T02:06:34.211Z,21.70
2018-10-01T02:09:02.527Z,21.70
2018-10-01T02:11:30.935Z,21.69
2018-10-01T02:13:59.243Z,21.69
2018-10-01T02:16:27.563Z,21.69
2018-10-01T02:18:55.870Z,21.68
2018-10-01T02:21:24.198Z,21.68
2018-10-01T02:23:52.606Z,21.67
2018-10-01T02:26:20.895Z,21.69
2018-10-01T02:28:49.177Z,21.68
2018-10-01T02:31:17.456Z,21.67
2018-10-01T02:33:45.794Z,21.65
2018-10-01T02:36:14.210Z,21.66
2018-10-01T02:38:42.548Z,21.65
2018-10-01T02:41:10.822Z,21.66
2018-10-01T02:43:39.198Z,21.65
2018-10-01T02:46:07.531Z,21.65
2018-10-01T02:48:35.835Z,21.65
2018-10-01T02:51:04.126Z,21.65
2018-10-01T02:53:38.171Z,21.63
2018-10-01T02:56:06.462Z,21.59
2018-10-01T02:58:34.765Z,21.63
2018-10-01T03:01:03.095Z,21.63
2018-10-01T03:03:31.498Z,21.63
2018-10-01T03:05:59.796Z,21.61
2018-10-01T03:08:28.115Z,21.61
2018-10-01T03:10:56.423Z,21.61
2018-10-01T03:13:24.814Z,21.61
2018-10-01T03:15:53.100Z,21.61
2018-10-01T03:18:21.407Z,21.61
2018-10-01T03:20:49.747Z,21.59
2018-10-01T03:23:18.047Z,21.60
2018-10-01T03:25:46.350Z,21.59
2018-10-01T03:28:14.645Z,21.60
2018-10-01T03:30:42.991Z,21.59
2018-10-01T03:33:11.355Z,21.58
2018-10-01T03:35:39.634Z,21.58
2018-10-01T03:38:07.933Z,21.58
2018-10-01T03:40:36.225Z,21.57
2018-10-01T03:43:04.520Z,21.57
2018-10-01T03:45:32.930Z,21.56
2018-10-01T03:48:01.242Z,21.57
2018-10-01T03:50:29.663Z,21.56
2018-10-01T03:52:57.982Z,21.54
2018-10-01T03:55:26.307Z,21.55
2018-10-01T03:57:54.584Z,21.54
2018-10-01T04:00:22.962Z,21.54
2018-10-01T04:02:51.591Z,21.53
2018-10-01T04:05:19.875Z,21.53
2018-10-01T04:07:48.208Z,21.53
2018-10-01T04:10:16.503Z,21.52
2018-10-01T04:12:44.817Z,21.51
2018-10-01T04:15:13.226Z,21.52
2018-10-01T04:17:41.547Z,21.52
2018-10-01T04:20:09.862Z,21.53
2018-10-01T04:22:39.237Z,21.53
2018-10-01T04:25:08.912Z,21.52
2018-10-01T04:27:37.729Z,21.52
2018-10-01T04:30:07.856Z,21.52
2018-10-01T04:32:36.151Z,21.51
2018-10-01T04:35:04.490Z,21.51
2018-10-01T04:37:32.827Z,21.51
2018-10-01T04:40:01.132Z,21.51
2018-10-01T04:42:29.422Z,21.52
2018-10-01T04:44:57.773Z,21.50
2018-10-01T04:47:26.126Z,21.51
2018-10-01T04:49:54.455Z,21.53
2018-10-01T04:52:22.735Z,21.51
2018-10-01T04:54:51.023Z,21.51
2018-10-01T04:57:19.366Z,21.51
2018-10-01T04:59:47.667Z,21.52
2018-10-01T05:02:16.009Z,21.51
2018-10-01T05:04:44.358Z,21.51
2018-10-01T05:07:13.631Z,21.50
2018-10-01T05:09:41.946Z,21.50
2018-10-01T05:12:10.371Z,21.50
2018-10-01T05:14:38.792Z,21.50
2018-10-01T05:17:07.090Z,21.51
2018-10-01T05:19:35.466Z,21.49
2018-10-01T05:22:03.862Z,21.49
2018-10-01T05:24:33.225Z,21.50
2018-10-01T05:27:01.580Z,21.50
2018-10-01T05:29:29.916Z,21.50
2018-10-01T05:31:58.400Z,21.49
2018-10-01T05:34:26.719Z,21.48
2018-10-01T05:36:55.123Z,21.49
2018-10-01T05:39:23.672Z,21.48
2018-10-01T05:41:52.082Z,21.48
2018-10-01T05:44:20.366Z,21.48
2018-10-01T05:46:48.697Z,21.48
2018-10-01T05:49:17.092Z,21.48
2018-10-01T05:51:45.350Z,21.48
2018-10-01T05:54:13.657Z,21.48
2018-10-01T05:56:42.060Z,21.46
2018-10-01T05:59:10.758Z,21.47
2018-10-01T06:01:39.116Z,21.46
2018-10-01T06:04:07.452Z,21.45
2018-10-01T06:06:35.785Z,21.46
2018-10-01T06:09:05.819Z,21.45
2018-10-01T06:11:34.126Z,21.44
2018-10-01T06:14:02.435Z,21.45
2018-10-01T06:16:30.746Z,21.45
2018-10-01T06:18:59.315Z,21.45
2018-10-01T06:21:27.613Z,21.46
2018-10-01T06:23:55.943Z,21.45
2018-10-01T06:26:24.243Z,21.46
2018-10-01T06:28:52.586Z,21.45
2018-10-01T06:31:21.008Z,21.44
2018-10-01T06:33:49.327Z,21.45
2018-10-01T06:36:17.783Z,21.45
2018-10-01T06:38:46.112Z,21.46
2018-10-01T06:41:14.515Z,21.47
2018-10-01T06:43:42.995Z,21.46
2018-10-01T06:46:11.405Z,21.47
2018-10-01T06:48:39.798Z,21.48
2018-10-01T06:51:08.111Z,21.49
2018-10-01T06:53:36.487Z,21.48
2018-10-01T06:56:04.878Z,21.48
2018-10-01T06:58:33.206Z,21.50
2018-10-01T07:01:01.610Z,21.51
2018-10-01T07:03:29.886Z,21.52
2018-10-01T07:05:58.718Z,21.53
2018-10-01T07:08:26.825Z,21.53
2018-10-01T07:10:55.111Z,21.53
2018-10-01T07:13:23.395Z,21.53
2018-10-01T07:15:51.711Z,21.54
2018-10-01T07:18:20.010Z,21.55
2018-10-01T07:20:48.294Z,21.55
2018-10-01T07:23:16.710Z,21.60
2018-10-01T07:25:44.902Z,21.64
2018-10-01T07:28:13.173Z,21.70
2018-10-01T07:30:41.482Z,21.76
2018-10-01T07:33:09.809Z,21.83
2018-10-01T07:35:38.143Z,21.90
2018-10-01T07:38:06.562Z,21.91
2018-10-01T07:40:34.869Z,21.89
2018-10-01T07:43:03.147Z,21.92
2018-10-01T07:45:31.684Z,21.92
2018-10-01T07:47:59.998Z,21.95
2018-10-01T07:50:28.390Z,21.99
2018-10-01T07:52:56.799Z,22.04
2018-10-01T07:55:25.090Z,22.06
2018-10-01T07:57:53.426Z,22.08
2018-10-01T08:00:21.858Z,22.11
2018-10-01T08:02:50.128Z,22.10
2018-10-01T08:05:18.560Z,22.05
2018-10-01T08:07:46.954Z,22.26
2018-10-01T08:10:15.323Z,22.27
2018-10-01T08:12:43.654Z,22.24
2018-10-01T08:15:11.966Z,22.23
2018-10-01T08:17:40.327Z,22.21
2018-10-01T08:20:08.628Z,22.23
2018-10-01T08:22:36.958Z,22.25
2018-10-01T08:25:05.266Z,22.25
2018-10-01T08:27:34.480Z,22.26
2018-10-01T08:30:02.882Z,22.29
2018-10-01T08:32:31.187Z,22.37
2018-10-01T08:34:59.629Z,22.41
2018-10-01T08:37:27.966Z,22.45
2018-10-01T08:39:56.350Z,22.49
2018-10-01T08:42:24.719Z,22.53
2018-10-01T08:44:53.023Z,22.58
2018-10-01T08:47:21.524Z,22.60
2018-10-01T08:49:54.838Z,22.55
2018-10-01T08:52:31.663Z,22.60
2018-10-01T08:55:00.074Z,22.67
2018-10-01T08:57:28.384Z,22.72
2018-10-01T08:59:56.673Z,22.83
2018-10-01T09:02:25.001Z,22.91
2018-10-01T09:04:53.326Z,22.98
2018-10-01T09:07:21.663Z,23.04
2018-10-01T09:09:49.978Z,23.01
2018-10-01T09:12:18.295Z,22.94
2018-10-01T09:14:46.697Z,22.92
2018-10-01T09:17:15.083Z,22.88
2018-10-01T09:19:43.679Z,22.89
2018-10-01T09:22:11.991Z,22.92
2018-10-01T09:24:40.267Z,22.93
2018-10-01T09:27:08.702Z,22.90
2018-10-01T09:29:37.491Z,23.00
2018-10-01T09:32:05.836Z,23.11
2018-10-01T09:34:34.095Z,23.20
2018-10-01T09:37:02.411Z,23.29
2018-10-01T09:39:30.763Z,23.37
2018-10-01T09:41:59.123Z,23.42
2018-10-01T09:44:27.467Z,23.47
2018-10-01T09:46:55.723Z,23.51
2018-10-01T09:49:24.066Z,23.72
2018-10-01T09:51:52.450Z,23.85
2018-10-01T09:54:20.763Z,23.73
2018-10-01T09:56:49.098Z,23.63
2018-10-01T09:59:17.487Z,23.52
2018-10-01T10:01:45.844Z,23.39
2018-10-01T10:04:14.177Z,23.30
2018-10-01T10:06:42.439Z,23.23
2018-10-01T10:09:11.556Z,23.24
2018-10-01T10:11:40.207Z,23.47
2018-10-01T10:14:09.614Z,23.74
2018-10-01T10:16:38.054Z,23.88
2018-10-01T10:19:06.372Z,24.10
2018-10-01T10:21:34.785Z,23.98
2018-10-01T10:24:03.114Z,23.81
2018-10-01T10:26:31.539Z,23.72
2018-10-01T10:28:59.827Z,23.90
2018-10-01T10:31:28.115Z,24.05
2018-10-01T10:33:56.456Z,24.47
2018-10-01T10:36:24.723Z,24.94
2018-10-01T10:38:53.031Z,25.42
2018-10-01T10:41:21.371Z,25.89
2018-10-01T10:43:49.743Z,26.33
2018-10-01T10:46:18.152Z,26.76
2018-10-01T10:48:46.531Z,26.69
2018-10-01T10:51:14.829Z,26.66
2018-10-01T10:53:43.158Z,25.96
2018-10-01T10:56:11.556Z,25.37
2018-10-01T10:58:39.858Z,24.95
2018-10-01T11:01:08.157Z,24.62
2018-10-01T11:03:36.463Z,24.37
2018-10-01T11:06:04.846Z,24.18
2018-10-01T11:08:33.182Z,24.05
2018-10-01T11:11:01.571Z,23.96
2018-10-01T11:13:29.902Z,23.87
2018-10-01T11:15:58.232Z,23.81
2018-10-01T11:18:26.570Z,23.76
2018-10-01T11:20:54.961Z,23.69
2018-10-01T11:23:23.170Z,23.64
2018-10-01T11:25:51.454Z,23.59
2018-10-01T11:28:19.942Z,23.55
2018-10-01T11:30:48.415Z,23.54
2018-10-01T11:33:16.995Z,23.54
2018-10-01T11:35:45.223Z,23.55
2018-10-01T11:38:13.851Z,23.53
2018-10-01T11:40:42.159Z,23.58
2018-10-01T11:43:10.557Z,24.29
2018-10-01T11:45:38.949Z,25.40
2018-10-01T11:48:07.302Z,25.92
2018-10-01T11:50:35.643Z,26.01
2018-10-01T11:53:04.460Z,25.94
2018-10-01T11:55:32.787Z,25.66
2018-10-01T11:58:01.097Z,25.27
2018-10-01T12:00:29.547Z,25.01
2018-10-01T12:02:57.914Z,25.03
2018-10-01T12:05:26.334Z,25.08
2018-10-01T12:07:54.677Z,25.09
2018-10-01T12:10:23.134Z,24.95
2018-10-01T12:12:51.459Z,24.85
2018-10-01T12:15:19.810Z,24.83
2018-10-01T12:17:48.081Z,24.84
2018-10-01T12:20:17.422Z,24.80
2018-10-01T12:22:45.794Z,24.84
2018-10-01T12:25:14.127Z,24.88
2018-10-01T12:27:42.483Z,24.75
2018-10-01T12:30:10.735Z,24.54
2018-10-01T12:32:39.246Z,24.40
2018-10-01T12:35:07.659Z,24.38
2018-10-01T12:37:35.966Z,24.38
2018-10-01T12:40:04.390Z,24.28
2018-10-01T12:42:32.794Z,24.13
2018-10-01T12:45:01.211Z,24.03
2018-10-01T12:47:29.556Z,23.95
2018-10-01T12:49:57.940Z,23.88
2018-10-01T12:52:26.379Z,23.86
2018-10-01T12:54:54.670Z,23.82
2018-10-01T12:57:23.017Z,23.83
2018-10-01T12:59:51.351Z,23.83
2018-10-01T13:02:19.773Z,23.84
2018-10-01T13:04:48.117Z,23.84
2018-10-01T13:07:16.418Z,23.83
2018-10-01T13:09:44.758Z,23.83
2018-10-01T13:12:13.149Z,23.82
2018-10-01T13:14:41.541Z,23.81
2018-10-01T13:17:09.864Z,23.81
2018-10-01T13:19:38.187Z,23.81
2018-10-01T13:22:06.746Z,23.80
2018-10-01T13:24:35.064Z,23.80
2018-10-01T13:27:03.334Z,23.79
2018-10-01T13:29:31.664Z,23.79
2018-10-01T13:32:00.223Z,23.79
2018-10-01T13:34:28.426Z,23.78
2018-10-01T13:36:56.742Z,23.78
2018-10-01T13:39:25.210Z,23.78
2018-10-01T13:41:53.530Z,23.78
2018-10-01T13:44:21.986Z,23.77
2018-10-01T13:46:50.199Z,23.77
2018-10-01T13:49:18.487Z,23.77
2018-10-01T13:51:46.817Z,23.76
2018-10-01T13:54:15.465Z,23.75
2018-10-01T13:56:43.650Z,23.74
2018-10-01T13:59:11.990Z,23.73
2018-10-01T14:01:40.430Z,23.73
2018-10-01T14:04:08.840Z,23.73
2018-10-01T14:06:37.166Z,23.75
2018-10-01T14:09:07.402Z,23.75
2018-10-01T14:11:35.770Z,23.74
2018-10-01T14:14:04.137Z,23.73
2018-10-01T14:16:32.550Z,23.73
2018-10-01T14:19:00.874Z,23.73
2018-10-01T14:21:29.177Z,23.75
2018-10-01T14:23:57.882Z,23.76
2018-10-01T14:26:26.587Z,23.77
2018-10-01T14:28:54.887Z,23.79
2018-10-01T14:31:23.735Z,23.80
2018-10-01T14:33:52.014Z,23.82
2018-10-01T14:36:20.393Z,23.85
2018-10-01T14:38:48.650Z,23.89
2018-10-01T14:41:16.947Z,23.92
2018-10-01T14:43:45.281Z,23.96
2018-10-01T14:46:13.590Z,24.00
2018-10-01T14:48:42.008Z,24.03
2018-10-01T14:51:10.345Z,24.07
2018-10-01T14:53:38.595Z,24.15
2018-10-01T14:56:06.998Z,24.22
2018-10-01T14:58:35.278Z,24.32
2018-10-01T15:01:03.644Z,24.40
2018-10-01T15:03:32.052Z,24.49
2018-10-01T15:06:00.442Z,24.60
2018-10-01T15:08:29.471Z,24.70
2018-10-01T15:10:58.162Z,24.82
2018-10-01T15:13:26.626Z,24.93
2018-10-01T15:15:56.086Z,25.03
2018-10-01T15:18:24.470Z,25.15
2018-10-01T15:20:52.770Z,25.27
2018-10-01T15:23:21.151Z,25.39
2018-10-01T15:25:49.483Z,25.48
2018-10-01T15:28:17.767Z,25.60
2018-10-01T15:30:46.579Z,25.72
2018-10-01T15:33:14.877Z,25.82
2018-10-01T15:35:43.223Z,25.91
2018-10-01T15:38:11.532Z,26.02
2018-10-01T15:40:39.830Z,26.13
2018-10-01T15:43:08.138Z,26.23
2018-10-01T15:45:36.503Z,26.32
2018-10-01T15:48:04.830Z,26.43
2018-10-01T15:50:33.258Z,26.56
2018-10-01T15:53:02.103Z,26.68
2018-10-01T15:55:30.423Z,26.82
2018-10-01T15:57:59.223Z,26.94
2018-10-01T16:00:27.914Z,27.07
2018-10-01T16:02:56.259Z,27.18
2018-10-01T16:05:24.561Z,27.31
2018-10-01T16:07:52.851Z,27.40
2018-10-01T16:10:21.574Z,27.50
2018-10-01T16:12:49.907Z,27.61
2018-10-01T16:15:18.242Z,27.70
2018-10-01T16:17:46.568Z,27.78
2018-10-01T16:20:14.883Z,27.87
2018-10-01T16:22:43.401Z,27.94
2018-10-01T16:25:11.953Z,28.02
2018-10-01T16:27:40.443Z,28.08
2018-10-01T16:30:09.183Z,28.16
2018-10-01T16:32:37.570Z,28.23
2018-10-01T16:35:05.947Z,28.28
2018-10-01T16:37:34.262Z,28.34
2018-10-01T16:40:02.698Z,28.40
2018-10-01T16:42:31.617Z,28.44
2018-10-01T16:45:00.570Z,28.50
2018-10-01T16:47:28.938Z,28.55
2018-10-01T16:49:57.273Z,28.59
2018-10-01T16:52:25.559Z,28.63
2018-10-01T16:54:54.065Z,28.67
2018-10-01T16:57:22.672Z,28.70
2018-10-01T16:59:51.395Z,28.75
2018-10-01T17:02:19.722Z,28.75
2018-10-01T17:04:48.097Z,28.78
2018-10-01T17:07:16.492Z,28.79
2018-10-01T17:09:44.817Z,28.82
2018-10-01T17:12:13.163Z,28.85
2018-10-01T17:14:41.523Z,28.86
2018-10-01T17:17:09.869Z,28.91
2018-10-01T17:19:38.227Z,28.97
2018-10-01T17:22:06.762Z,29.04
2018-10-01T17:24:35.080Z,29.10
2018-10-01T17:27:03.414Z,29.17
2018-10-01T17:29:32.045Z,29.21
2018-10-01T17:32:00.376Z,29.27
2018-10-01T17:34:28.740Z,29.32
2018-10-01T17:36:57.074Z,29.37
2018-10-01T17:39:25.358Z,29.37
2018-10-01T17:41:53.702Z,29.41
2018-10-01T17:44:21.987Z,29.44
2018-10-01T17:46:50.291Z,29.52
2018-10-01T17:49:18.614Z,29.59
2018-10-01T17:51:46.959Z,29.62
2018-10-01T17:54:15.407Z,29.64
2018-10-01T17:56:43.699Z,29.68
2018-10-01T17:59:12.021Z,29.73
2018-10-01T18:01:40.404Z,29.76
2018-10-01T18:04:08.863Z,29.75
2018-10-01T18:06:37.353Z,29.75
2018-10-01T18:09:08.617Z,29.77
2018-10-01T18:11:37.130Z,29.80
2018-10-01T18:14:05.481Z,29.81
2018-10-01T18:16:33.933Z,29.81
2018-10-01T18:19:02.210Z,29.81
2018-10-01T18:21:30.721Z,29.80
2018-10-01T18:23:59.187Z,29.84
2018-10-01T18:26:27.546Z,29.88
2018-10-01T18:28:56.110Z,29.89
2018-10-01T18:31:24.603Z,29.90
2018-10-01T18:33:53.034Z,29.91
2018-10-01T18:36:21.462Z,29.88
2018-10-01T18:38:49.899Z,29.87
2018-10-01T18:41:18.217Z,29.84
2018-10-01T18:43:46.801Z,29.82
2018-10-01T18:46:15.083Z,29.85
2018-10-01T18:48:43.423Z,29.82
2018-10-01T18:51:11.795Z,29.78
2018-10-01T18:53:40.200Z,29.75
2018-10-01T18:56:08.616Z,29.76
2018-10-01T18:58:36.990Z,29.73
2018-10-01T19:01:06.779Z,29.76
2018-10-01T19:03:35.258Z,29.72
2018-10-01T19:06:03.614Z,29.72
2018-10-01T19:08:32.139Z,29.66
2018-10-01T19:11:00.511Z,29.65
2018-10-01T19:13:28.922Z,29.61
2018-10-01T19:15:57.331Z,29.57
2018-10-01T19:18:25.659Z,29.56
2018-10-01T19:20:53.984Z,29.52
2018-10-01T19:23:22.356Z,29.52
2018-10-01T19:25:50.725Z,29.51
2018-10-01T19:28:19.106Z,29.46
2018-10-01T19:30:47.438Z,29.45
2018-10-01T19:33:15.897Z,29.41
2018-10-01T19:35:44.234Z,29.36
2018-10-01T19:38:12.611Z,29.34
2018-10-01T19:40:40.978Z,29.28
2018-10-01T19:43:09.413Z,29.24
2018-10-01T19:45:38.259Z,29.22
2018-10-01T19:48:38.004Z,29.19
2018-10-01T19:51:06.626Z,29.11
2018-10-01T19:53:35.247Z,29.06
2018-10-01T19:56:03.596Z,29.01
2018-10-01T19:58:31.931Z,28.96
2018-10-01T20:01:00.247Z,28.93
2018-10-01T20:03:28.694Z,28.90
2018-10-01T20:05:57.123Z,28.85
2018-10-01T20:08:25.570Z,28.81
2018-10-01T20:10:53.940Z,28.75
2018-10-01T20:13:22.406Z,28.72
2018-10-01T20:15:50.794Z,28.69
2018-10-01T20:18:19.122Z,28.63
2018-10-01T20:20:47.506Z,28.57
2018-10-01T20:23:15.859Z,28.51
2018-10-01T20:25:44.423Z,28.43
2018-10-01T20:28:12.896Z,28.44
2018-10-01T20:30:41.187Z,28.39
2018-10-01T20:33:10.316Z,28.33
2018-10-01T20:35:38.799Z,28.28
2018-10-01T20:38:07.200Z,28.24
2018-10-01T20:40:35.520Z,28.18
2018-10-01T20:43:04.229Z,28.13
2018-10-01T20:45:32.510Z,28.09
2018-10-01T20:48:00.949Z,28.05
2018-10-01T20:50:29.326Z,28.01
2018-10-01T20:52:57.755Z,27.96
2018-10-01T20:55:26.070Z,27.93
2018-10-01T20:57:54.631Z,27.87
2018-10-01T21:00:23.077Z,27.84
2018-10-01T21:02:51.515Z,27.78
2018-10-01T21:05:20.010Z,27.74
2018-10-01T21:07:48.299Z,27.69
2018-10-01T21:10:16.689Z,27.64
2018-10-01T21:12:45.010Z,27.61
2018-10-01T21:15:13.355Z,27.55
2018-10-01T21:17:42.650Z,27.52
2018-10-01T21:20:10.990Z,27.47
2018-10-01T21:22:39.312Z,27.43
2018-10-01T21:25:07.688Z,27.38
2018-10-01T21:27:35.995Z,27.33
2018-10-01T21:30:04.762Z,27.28
2018-10-01T21:32:33.065Z,27.23
2018-10-01T21:35:01.363Z,27.18
2018-10-01T21:37:29.683Z,27.11
2018-10-01T21:40:06.975Z,27.06
2018-10-01T21:42:35.301Z,27.00
2018-10-01T21:45:03.986Z,26.97
2018-10-01T21:47:32.824Z,26.91
2018-10-01T21:50:01.209Z,26.87
2018-10-01T21:52:29.849Z,26.80
2018-10-01T21:54:58.402Z,26.77
2018-10-01T21:57:26.782Z,26.71
2018-10-01T21:59:55.143Z,26.66
2018-10-01T22:02:23.467Z,26.61
2018-10-01T22:04:51.786Z,26.55
2018-10-01T22:07:20.256Z,26.48
2018-10-01T22:09:49.159Z,26.43
2018-10-01T22:12:17.489Z,26.38
2018-10-01T22:14:45.863Z,26.33
2018-10-01T22:17:15.162Z,26.28
2018-10-01T22:19:43.491Z,26.23
2018-10-01T22:22:11.858Z,26.17
2018-10-01T22:24:40.187Z,26.13
2018-10-01T22:27:08.514Z,26.09
2018-10-01T22:29:36.943Z,26.04
2018-10-01T22:32:05.251Z,26.00
2018-10-01T22:34:33.542Z,25.95
2018-10-01T22:37:01.914Z,25.92
2018-10-01T22:39:30.198Z,25.86
2018-10-01T22:41:58.477Z,25.83
2018-10-01T22:44:26.774Z,25.78
2018-10-01T22:46:55.083Z,25.76
2018-10-01T22:49:23.503Z,25.73
2018-10-01T22:51:51.814Z,25.69
2018-10-01T22:54:20.166Z,25.66
2018-10-01T22:56:48.442Z,25.63
2018-10-01T22:59:17.259Z,25.60
2018-10-01T23:01:45.550Z,25.58
2018-10-01T23:04:13.826Z,25.54
2018-10-01T23:06:42.140Z,25.51
2018-10-01T23:09:10.502Z,25.47
2018-10-01T23:11:38.813Z,25.45
2018-10-01T23:14:07.159Z,25.40
2018-10-01T23:16:35.465Z,25.37
2018-10-01T23:19:03.754Z,25.34
2018-10-01T23:21:32.082Z,25.33
2018-10-01T23:24:00.473Z,25.29
2018-10-01T23:26:28.773Z,25.27
2018-10-01T23:28:57.047Z,25.25
2018-10-01T23:31:25.377Z,25.21
2018-10-01T23:33:53.780Z,25.20
2018-10-01T23:36:22.150Z,25.16
2018-10-01T23:38:50.562Z,25.13
2018-10-01T23:41:19.286Z,25.10
2018-10-01T23:43:47.598Z,25.08
2018-10-01T23:46:15.891Z,25.06
2018-10-01T23:48:44.174Z,25.03
2018-10-01T23:51:12.538Z,25.01
2018-10-01T23:53:41.574Z,24.98
2018-10-01T23:56:09.918Z,24.96
2018-10-01T23:58:38.254Z,24.94
